Terminal Aerodrome Forecast
Issued by NWS Bismarck, ND

Home | Current Version | Previous Version | Graphics & Text | Print | Product List | Glossary On
Versions: 1 2 3 4 5 6 7 8 9 10 11 12 13 14
000
FTUS43 KBIS 190537
TAFBIS
TAF
KBIS 190537Z 1906/2006 08010KT P6SM SCT200
     FM190800 09010KT P6SM BKN120
     FM191100 11006KT P6SM OVC120
     FM191600 14008KT P6SM SCT120 SCT200
     FM192000 14008KT P6SM FEW300
     FM200300 14004KT P6SM BKN200=

USA.gov is the U.S. government's official web portal to all federal, state and local government web resources and services.